createdAt,value
2018-06-23T00:00:37.527Z,23.11
2018-06-23T00:01:37.560Z,23.07
2018-06-23T00:02:37.569Z,23.07
2018-06-23T00:03:37.625Z,23.08
2018-06-23T00:04:37.606Z,23.2
2018-06-23T00:05:37.567Z,23.11
2018-06-23T00:06:37.589Z,23.13
2018-06-23T00:07:37.542Z,23.14
2018-06-23T00:08:37.531Z,23.14
2018-06-23T00:09:37.593Z,23.06
2018-06-23T00:10:37.591Z,23.16
2018-06-23T00:11:37.575Z,23.06
2018-06-23T00:12:37.546Z,23.1
2018-06-23T00:13:37.586Z,23.04
2018-06-23T00:14:37.573Z,23.14
2018-06-23T00:15:37.580Z,23.07
2018-06-23T00:16:37.555Z,23.06
2018-06-23T00:17:37.553Z,23.1
2018-06-23T00:18:37.569Z,23.1
2018-06-23T00:19:37.566Z,23.08
2018-06-23T00:20:37.549Z,23.11
2018-06-23T00:21:37.580Z,23.1
2018-06-23T00:22:37.618Z,23.08
2018-06-23T00:23:37.639Z,23.1
2018-06-23T00:24:38.213Z,23.07
2018-06-23T00:25:37.586Z,23.07
2018-06-23T00:26:37.587Z,23.1
2018-06-23T00:27:37.638Z,23.11
2018-06-23T00:28:37.600Z,23.13
2018-06-23T00:29:37.606Z,23.07
2018-06-23T00:30:37.606Z,23.1
2018-06-23T00:31:37.625Z,23.06
2018-06-23T00:32:37.574Z,23.06
2018-06-23T00:33:37.568Z,23.08
2018-06-23T00:34:37.611Z,23.2
2018-06-23T00:35:37.592Z,23.1
2018-06-23T00:36:37.556Z,23.1
2018-06-23T00:37:37.592Z,23.08
2018-06-23T00:38:37.612Z,23.07
2018-06-23T00:39:37.633Z,23.2
2018-06-23T00:40:37.589Z,23.17
2018-06-23T00:41:37.644Z,23.06
2018-06-23T00:42:37.574Z,23.04
2018-06-23T00:43:37.631Z,23.08
2018-06-23T00:44:37.610Z,23.06
2018-06-23T00:45:37.644Z,23.04
2018-06-23T00:46:37.619Z,23.02
2018-06-23T00:47:37.687Z,22.99
2018-06-23T00:48:37.610Z,23.13
2018-06-23T00:49:37.635Z,23.06
2018-06-23T00:50:37.654Z,23.08
2018-06-23T00:51:37.623Z,23.06
2018-06-23T00:52:37.657Z,23.02
2018-06-23T00:53:37.685Z,23.04
2018-06-23T00:54:37.693Z,23.08
2018-06-23T00:55:37.649Z,22.98
2018-06-23T00:56:37.629Z,23.02
2018-06-23T00:57:37.660Z,23.02
2018-06-23T00:58:37.615Z,23.04
2018-06-23T00:59:37.623Z,22.99
2018-06-23T01:00:37.694Z,22.98
2018-06-23T01:01:37.644Z,22.99
2018-06-23T01:02:37.702Z,23.01
2018-06-23T01:03:37.623Z,22.91
2018-06-23T01:04:37.635Z,22.93
2018-06-23T01:05:37.648Z,22.95
2018-06-23T01:06:37.658Z,23.11
2018-06-23T01:07:37.657Z,23.01
2018-06-23T01:08:37.682Z,23.01
2018-06-23T01:09:37.678Z,23.01
2018-06-23T01:10:37.639Z,22.99
2018-06-23T01:11:37.656Z,23.04
2018-06-23T01:12:37.657Z,23.08
2018-06-23T01:13:37.668Z,23.04
2018-06-23T01:14:37.682Z,23.04
2018-06-23T01:15:37.704Z,23.06
2018-06-23T01:16:37.693Z,23.04
2018-06-23T01:17:37.716Z,23.08
2018-06-23T01:18:38.416Z,23.06
2018-06-23T01:19:38.251Z,23.06
2018-06-23T01:20:37.662Z,23.04
2018-06-23T01:21:37.729Z,23.08
2018-06-23T01:22:37.700Z,23.06
2018-06-23T01:23:37.689Z,23.06
2018-06-23T01:24:37.659Z,23.04
2018-06-23T01:25:37.691Z,23.06
2018-06-23T01:26:37.863Z,23.1
2018-06-23T01:27:37.652Z,23.02
2018-06-23T01:28:37.688Z,23.06
2018-06-23T01:29:37.698Z,23.1
2018-06-23T01:30:37.745Z,23.1
2018-06-23T01:31:37.729Z,23.14
2018-06-23T01:32:37.697Z,23.14
2018-06-23T01:33:37.669Z,23.1
2018-06-23T01:34:37.674Z,23.07
2018-06-23T01:35:37.703Z,23.11
2018-06-23T01:36:37.697Z,23.07
2018-06-23T01:37:37.729Z,23.06
2018-06-23T01:38:37.722Z,23.08
2018-06-23T01:39:37.703Z,23.1
2018-06-23T01:40:37.710Z,23.08
2018-06-23T01:41:37.696Z,23.08
2018-06-23T01:42:37.725Z,23.17
2018-06-23T01:43:37.737Z,23.04
2018-06-23T01:44:37.711Z,23.11
2018-06-23T01:45:37.694Z,23.08
2018-06-23T01:46:37.749Z,23.14
2018-06-23T01:47:37.757Z,23.11
2018-06-23T01:48:37.712Z,23.14
2018-06-23T01:49:37.723Z,23.16
2018-06-23T01:50:37.699Z,23.14
2018-06-23T01:51:37.715Z,23.1
2018-06-23T01:52:37.709Z,23.06
2018-06-23T01:53:37.749Z,23.17
2018-06-23T01:54:37.730Z,23.11
2018-06-23T01:55:37.729Z,23.08
2018-06-23T01:56:37.736Z,23.1
2018-06-23T01:57:37.699Z,23.14
2018-06-23T01:58:37.752Z,23.07
2018-06-23T01:59:37.719Z,23.06
2018-06-23T02:00:37.743Z,23.13
2018-06-23T02:01:37.752Z,23.13
2018-06-23T02:02:37.730Z,23.04
2018-06-23T02:03:37.752Z,23.11
2018-06-23T02:04:37.731Z,23.14
2018-06-23T02:05:37.753Z,23.11
2018-06-23T02:06:37.737Z,23.17
2018-06-23T02:07:37.783Z,23.07
2018-06-23T02:08:37.711Z,23.08
2018-06-23T02:09:37.782Z,23.01
2018-06-23T02:10:37.736Z,23.07
2018-06-23T02:11:37.770Z,23.1
2018-06-23T02:12:37.779Z,23.07
2018-06-23T02:13:37.734Z,23.08
2018-06-23T02:14:37.755Z,23.04
2018-06-23T02:15:37.790Z,23.11
2018-06-23T02:16:38.540Z,23.1
2018-06-23T02:17:37.877Z,23.06
2018-06-23T02:18:37.810Z,23.02
2018-06-23T02:19:37.767Z,23.01
2018-06-23T02:20:37.797Z,23.04
2018-06-23T02:21:37.774Z,23.06
2018-06-23T02:22:38.300Z,23.01
2018-06-23T02:23:37.770Z,23.1
2018-06-23T02:24:37.800Z,23.04
2018-06-23T02:25:37.836Z,22.96
2018-06-23T02:26:37.788Z,23.02
2018-06-23T02:27:37.816Z,22.92
2018-06-23T02:28:37.843Z,22.96
2018-06-23T02:29:37.813Z,22.96
2018-06-23T02:30:37.787Z,22.88
2018-06-23T02:31:37.799Z,23.06
2018-06-23T02:32:37.860Z,23.01
2018-06-23T02:37:07.443Z,22.95
2018-06-23T02:38:07.333Z,23.02
2018-06-23T02:39:07.306Z,22.96
2018-06-23T02:40:07.348Z,23.02
2018-06-23T02:41:07.369Z,23.04
2018-06-23T02:42:07.396Z,23.04
2018-06-23T02:43:07.415Z,22.98
2018-06-23T02:44:07.421Z,22.98
2018-06-23T02:45:07.369Z,22.96
2018-06-23T02:46:07.430Z,23.01
2018-06-23T02:47:07.433Z,23.04
2018-06-23T02:48:07.391Z,23.01
2018-06-23T02:49:07.398Z,23.02
2018-06-23T02:50:07.382Z,23.02
2018-06-23T02:51:07.389Z,23.06
2018-06-23T02:52:07.435Z,23.02
2018-06-23T02:53:07.392Z,22.99
2018-06-23T02:54:07.381Z,22.98
2018-06-23T02:55:07.385Z,23.07
2018-06-23T02:56:07.376Z,23.04
2018-06-23T02:57:07.418Z,23.04
2018-06-23T02:58:07.492Z,23.1
2018-06-23T02:59:07.378Z,23.02
2018-06-23T03:00:07.410Z,23.04
2018-06-23T03:01:07.376Z,23.02
2018-06-23T03:02:07.398Z,22.98
2018-06-23T03:03:07.409Z,22.99
2018-06-23T03:04:07.439Z,23.07
2018-06-23T03:05:07.420Z,23.04
2018-06-23T03:06:07.422Z,23.01
2018-06-23T03:07:10.503Z,23.04
2018-06-23T03:08:07.411Z,23.07
2018-06-23T03:09:07.437Z,23.01
2018-06-23T03:10:07.424Z,23.04
2018-06-23T03:11:07.411Z,23.04
2018-06-23T03:12:07.517Z,23.04
2018-06-23T03:13:07.431Z,23.04
2018-06-23T03:14:07.504Z,23.08
2018-06-23T03:15:07.394Z,23.01
2018-06-23T03:16:07.440Z,23.08
2018-06-23T03:17:07.395Z,23.07
2018-06-23T03:18:07.428Z,23.18
2018-06-23T03:19:07.412Z,23.01
2018-06-23T03:20:07.463Z,23.11
2018-06-23T03:21:07.410Z,23.1
2018-06-23T03:22:07.416Z,23.02
2018-06-23T03:26:35.614Z,23.06
2018-06-23T03:27:35.547Z,23.11
2018-06-23T03:28:35.531Z,23.07
2018-06-23T03:29:35.560Z,23.1
2018-06-23T03:30:35.585Z,23.11
2018-06-23T03:31:35.548Z,23.1
2018-06-23T03:32:35.524Z,23.11
2018-06-23T03:33:35.555Z,23.07
2018-06-23T03:34:35.547Z,23.08
2018-06-23T03:35:35.552Z,23.07
2018-06-23T03:36:35.550Z,23.04
2018-06-23T03:37:35.538Z,23.02
2018-06-23T03:38:35.562Z,23.11
2018-06-23T03:39:35.545Z,23.01
2018-06-23T03:40:35.599Z,23.04
2018-06-23T03:45:52.458Z,23.06
2018-06-23T03:46:03.925Z,22.95
2018-06-23T03:47:03.935Z,23.13
2018-06-23T03:48:03.895Z,23.08
2018-06-23T03:49:03.877Z,23.07
2018-06-23T03:50:03.933Z,23.06
2018-06-23T03:54:32.390Z,23.07
2018-06-23T03:55:32.405Z,23.06
2018-06-23T03:56:32.420Z,23.02
2018-06-23T03:57:33.056Z,23.1
2018-06-23T03:58:32.378Z,23.07
2018-06-23T03:59:32.407Z,23.1
2018-06-23T04:00:32.357Z,23.01
2018-06-23T04:01:32.396Z,23.11
2018-06-23T04:02:32.392Z,23.11
2018-06-23T04:03:32.351Z,23.13
2018-06-23T04:04:32.378Z,23.07
2018-06-23T04:05:32.389Z,23.07
2018-06-23T04:06:32.396Z,23.14
2018-06-23T04:07:32.455Z,23.14
2018-06-23T04:08:32.378Z,23.14
2018-06-23T04:09:32.365Z,23.1
2018-06-23T04:10:32.392Z,23.11
2018-06-23T04:11:32.465Z,23.06
2018-06-23T04:12:32.947Z,23.06
2018-06-23T04:13:32.376Z,23.1
2018-06-23T04:14:32.364Z,23.1
2018-06-23T04:15:32.406Z,23.07
2018-06-23T04:16:32.405Z,23.1
2018-06-23T04:17:32.461Z,23.08
2018-06-23T04:18:32.486Z,23.11
2018-06-23T04:19:32.430Z,23.06
2018-06-23T04:20:32.406Z,23.07
2018-06-23T04:21:32.392Z,23.08
2018-06-23T04:22:32.496Z,23.11
2018-06-23T04:23:32.459Z,23.06
2018-06-23T04:24:32.441Z,23.07
2018-06-23T04:25:32.393Z,23.1
2018-06-23T04:26:32.445Z,23.16
2018-06-23T04:27:32.426Z,23.14
2018-06-23T04:28:32.408Z,23.13
2018-06-23T04:29:32.414Z,23.04
2018-06-23T04:30:32.480Z,23.1
2018-06-23T04:31:32.432Z,23.1
2018-06-23T04:32:32.411Z,23.11
2018-06-23T04:33:32.424Z,23.07
2018-06-23T04:34:32.448Z,23.04
2018-06-23T04:35:32.425Z,23.08
2018-06-23T04:36:32.410Z,22.98
2018-06-23T04:37:32.437Z,22.99
2018-06-23T04:38:32.450Z,22.99
2018-06-23T04:39:32.426Z,22.92
2018-06-23T04:40:32.442Z,23.01
2018-06-23T04:41:32.400Z,22.98
2018-06-23T04:42:32.453Z,23.01
2018-06-23T04:43:32.478Z,23.01
2018-06-23T04:44:32.458Z,22.99
2018-06-23T04:45:32.421Z,23.04
2018-06-23T04:46:32.402Z,22.99
2018-06-23T04:47:32.460Z,22.98
2018-06-23T04:48:32.486Z,22.93
2018-06-23T04:49:32.472Z,22.95
2018-06-23T04:50:32.456Z,22.98
2018-06-23T04:51:32.481Z,23.01
2018-06-23T04:52:32.434Z,23.08
2018-06-23T04:53:32.472Z,22.99
2018-06-23T04:54:32.437Z,22.96
2018-06-23T04:55:32.455Z,23.02
2018-06-23T04:56:32.422Z,23.04
2018-06-23T04:57:32.446Z,22.98
2018-06-23T04:58:32.474Z,22.91
2018-06-23T04:59:32.574Z,22.89
2018-06-23T05:00:32.684Z,22.95
2018-06-23T05:02:55.932Z,22.91
2018-06-23T05:03:49.700Z,22.96
2018-06-23T05:04:49.764Z,22.96
2018-06-23T05:05:49.726Z,22.89
2018-06-23T05:06:49.698Z,22.96
2018-06-23T05:07:49.764Z,22.89
2018-06-23T05:08:49.686Z,22.99
2018-06-23T05:09:49.702Z,22.96
2018-06-23T05:10:49.679Z,22.92
2018-06-23T05:11:49.875Z,22.95
2018-06-23T05:12:49.904Z,22.92
2018-06-23T05:13:49.928Z,22.96
2018-06-23T05:14:49.912Z,22.88
2018-06-23T05:15:49.926Z,22.78
2018-06-23T05:16:49.948Z,22.83
2018-06-23T05:17:49.884Z,22.93
2018-06-23T05:18:49.921Z,22.86
2018-06-23T05:19:49.925Z,22.88
2018-06-23T05:20:49.895Z,22.88
2018-06-23T05:21:49.909Z,22.86
2018-06-23T05:22:49.917Z,22.84
2018-06-23T05:23:49.901Z,22.78
2018-06-23T05:24:49.928Z,22.84
2018-06-23T05:25:49.889Z,22.88
2018-06-23T05:26:49.942Z,22.89
2018-06-23T05:27:49.919Z,22.88
2018-06-23T05:28:49.986Z,22.93
2018-06-23T05:29:49.942Z,22.78
2018-06-23T05:30:50.029Z,22.83
2018-06-23T05:31:50.013Z,22.81
2018-06-23T05:32:49.937Z,22.84
2018-06-23T05:33:49.960Z,22.81
2018-06-23T05:34:49.974Z,22.88
2018-06-23T05:35:49.944Z,22.84
2018-06-23T05:36:49.977Z,22.89
2018-06-23T05:37:50.073Z,22.88
2018-06-23T05:38:49.948Z,22.86
2018-06-23T05:39:49.971Z,22.78
2018-06-23T05:40:49.917Z,22.77
2018-06-23T05:41:49.965Z,22.78
2018-06-23T05:42:49.914Z,22.84
2018-06-23T05:43:49.983Z,22.8
2018-06-23T05:44:50.013Z,22.81
2018-06-23T05:45:49.961Z,22.86
2018-06-23T05:46:49.962Z,22.89
2018-06-23T05:47:49.981Z,22.88
2018-06-23T05:48:49.940Z,22.86
2018-06-23T05:49:49.969Z,22.77
2018-06-23T05:50:49.993Z,22.81
2018-06-23T05:51:49.947Z,22.76
2018-06-23T05:52:49.954Z,22.77
2018-06-23T05:53:49.995Z,22.8
2018-06-23T05:54:50.069Z,22.86
2018-06-23T05:55:50.047Z,22.91
2018-06-23T05:56:49.995Z,22.83
2018-06-23T05:57:50.011Z,22.89
2018-06-23T05:58:49.992Z,22.89
2018-06-23T05:59:49.971Z,22.8
2018-06-23T06:00:50.011Z,22.84
2018-06-23T06:01:49.965Z,22.84
2018-06-23T06:02:53.757Z,22.83
2018-06-23T06:03:50.031Z,22.78
2018-06-23T06:04:49.966Z,22.84
2018-06-23T06:05:49.973Z,22.83
2018-06-23T06:06:50.007Z,22.8
2018-06-23T06:07:49.974Z,22.89
2018-06-23T06:08:50.011Z,22.8
2018-06-23T06:09:49.975Z,22.88
2018-06-23T06:10:49.993Z,22.91
2018-06-23T06:11:50.147Z,22.86
2018-06-23T06:12:49.962Z,22.89
2018-06-23T06:13:50.013Z,22.83
2018-06-23T06:14:50.021Z,22.91
2018-06-23T06:15:50.013Z,22.95
2018-06-23T06:16:50.012Z,22.92
2018-06-23T06:17:49.997Z,22.95
2018-06-23T06:18:50.025Z,22.84
2018-06-23T06:19:49.979Z,22.83
2018-06-23T06:20:50.011Z,22.96
2018-06-23T06:21:49.987Z,23.01
2018-06-23T06:22:50.047Z,23.04
2018-06-23T06:23:50.140Z,22.99
2018-06-23T06:24:49.958Z,22.99
2018-06-23T06:25:50.024Z,23.07
2018-06-23T06:26:49.979Z,23.01
2018-06-23T06:27:50.648Z,23.01
2018-06-23T06:28:49.982Z,22.96
2018-06-23T06:29:49.990Z,22.91
2018-06-23T06:30:49.998Z,22.73
2018-06-23T06:31:50.033Z,22.73
2018-06-23T06:32:50.011Z,22.78
2018-06-23T06:34:04.184Z,22.74
2018-06-23T06:34:49.998Z,22.8
2018-06-23T06:35:50.107Z,22.84
2018-06-23T06:36:50.045Z,23.01
2018-06-23T06:37:50.015Z,22.93
2018-06-23T06:38:50.053Z,22.83
2018-06-23T06:39:50.138Z,22.83
2018-06-23T06:40:50.041Z,22.89
2018-06-23T06:41:50.106Z,22.89
2018-06-23T06:42:50.077Z,22.81
2018-06-23T06:43:50.165Z,22.81
2018-06-23T06:44:50.044Z,22.78
2018-06-23T06:45:50.025Z,22.92
2018-06-23T06:46:50.028Z,22.98
2018-06-23T06:47:50.061Z,22.95
2018-06-23T06:48:50.029Z,22.89
2018-06-23T06:49:50.046Z,22.95
2018-06-23T06:50:50.149Z,22.88
2018-06-23T06:51:50.037Z,22.74
2018-06-23T06:52:50.173Z,22.55
2018-06-23T06:53:50.056Z,22.71
2018-06-23T06:54:50.107Z,22.67
2018-06-23T06:55:50.042Z,22.8
2018-06-23T06:56:50.115Z,22.81
2018-06-23T06:57:50.080Z,22.84
2018-06-23T06:58:50.050Z,22.86
2018-06-23T06:59:50.118Z,22.91
2018-06-23T07:00:50.171Z,22.95
2018-06-23T07:01:50.072Z,22.92
2018-06-23T07:02:50.129Z,22.93
2018-06-23T07:03:50.094Z,22.91
2018-06-23T07:04:50.149Z,22.91
2018-06-23T07:05:50.099Z,22.95
2018-06-23T07:06:50.106Z,22.98
2018-06-23T07:07:50.090Z,22.95
2018-06-23T07:08:50.225Z,23.06
2018-06-23T07:09:50.100Z,22.98
2018-06-23T07:10:50.139Z,23.01
2018-06-23T07:11:50.092Z,23.02
2018-06-23T07:12:50.076Z,22.96
2018-06-23T07:13:50.084Z,23.01
2018-06-23T07:14:50.161Z,23.01
2018-06-23T07:15:50.150Z,22.91
2018-06-23T07:16:50.120Z,23.01
2018-06-23T07:17:50.157Z,22.98
2018-06-23T07:18:50.236Z,22.95
2018-06-23T07:19:50.195Z,22.89
2018-06-23T07:20:50.228Z,22.93
2018-06-23T07:21:50.170Z,22.92
2018-06-23T07:22:50.183Z,22.91
2018-06-23T07:23:50.380Z,22.92
2018-06-23T07:24:50.153Z,22.88
2018-06-23T07:25:50.180Z,22.89
2018-06-23T07:26:50.295Z,22.93
2018-06-23T07:27:50.147Z,22.86
2018-06-23T07:28:50.120Z,22.89
2018-06-23T07:29:50.106Z,22.81
2018-06-23T07:30:50.260Z,22.83
2018-06-23T07:31:50.174Z,22.77
2018-06-23T07:32:50.094Z,22.76
2018-06-23T07:33:50.110Z,22.81
2018-06-23T07:34:50.322Z,22.83
2018-06-23T07:35:50.118Z,22.78
2018-06-23T07:36:50.203Z,22.77
2018-06-23T07:37:50.153Z,22.77
2018-06-23T07:38:50.194Z,22.76
2018-06-23T07:39:50.128Z,22.88
2018-06-23T07:40:50.206Z,22.78
2018-06-23T07:41:50.181Z,22.86
2018-06-23T07:42:50.135Z,22.91
2018-06-23T07:43:50.165Z,22.88
2018-06-23T07:44:50.152Z,22.92
2018-06-23T07:45:50.238Z,22.92
2018-06-23T07:46:50.303Z,22.91
2018-06-23T07:47:50.150Z,22.84
2018-06-23T07:48:50.232Z,22.88
2018-06-23T07:49:50.159Z,22.81
2018-06-23T07:50:50.209Z,22.89
2018-06-23T07:51:50.195Z,22.98
2018-06-23T07:52:50.827Z,22.93
2018-06-23T07:53:50.852Z,22.96
2018-06-23T07:54:50.303Z,22.98
2018-06-23T07:55:50.168Z,22.96
2018-06-23T07:56:50.189Z,22.96
2018-06-23T07:57:50.196Z,22.98
2018-06-23T07:58:50.242Z,23.01
2018-06-23T07:59:50.967Z,22.98
2018-06-23T08:00:50.487Z,22.91
2018-06-23T08:01:50.264Z,22.92
2018-06-23T08:02:50.263Z,23.02
2018-06-23T08:03:50.173Z,22.98
2018-06-23T08:04:50.277Z,22.93
2018-06-23T08:05:50.186Z,22.91
2018-06-23T08:06:50.191Z,22.91
2018-06-23T08:07:50.140Z,22.84
2018-06-23T08:08:50.366Z,22.8
2018-06-23T08:09:50.209Z,22.78
2018-06-23T08:10:51.273Z,22.86
2018-06-23T08:11:50.397Z,22.83
2018-06-23T08:12:50.227Z,22.81
2018-06-23T08:13:50.422Z,22.78
2018-06-23T08:14:50.216Z,22.8
2018-06-23T08:15:50.234Z,22.74
2018-06-23T08:16:50.180Z,22.74
2018-06-23T08:17:50.162Z,22.7
2018-06-23T08:18:50.252Z,22.76
2018-06-23T08:19:50.205Z,22.78
2018-06-23T08:20:50.356Z,22.76
2018-06-23T08:21:50.298Z,22.71
2018-06-23T08:22:50.299Z,22.78
2018-06-23T08:23:50.404Z,22.83
2018-06-23T08:24:50.241Z,22.77
2018-06-23T08:25:50.219Z,22.83
2018-06-23T08:26:50.297Z,22.78
2018-06-23T08:27:50.288Z,22.8
2018-06-23T08:28:50.321Z,22.78
2018-06-23T08:29:50.247Z,22.77
2018-06-23T08:30:50.282Z,22.62
2018-06-23T08:31:50.300Z,22.61
2018-06-23T08:32:50.234Z,22.61
2018-06-23T08:33:50.235Z,22.59
2018-06-23T08:34:50.253Z,22.73
2018-06-23T08:35:50.272Z,22.63
2018-06-23T08:36:50.265Z,22.67
2018-06-23T08:37:50.354Z,22.63
2018-06-23T08:38:50.273Z,22.77
2018-06-23T08:39:50.312Z,22.73
2018-06-23T08:40:50.241Z,22.73
2018-06-23T08:41:50.343Z,22.74
2018-06-23T08:42:50.321Z,22.62
2018-06-23T08:43:50.357Z,22.65
2018-06-23T08:44:50.695Z,22.67
2018-06-23T08:45:50.290Z,22.74
2018-06-23T08:46:50.254Z,22.63
2018-06-23T08:47:50.264Z,22.62
2018-06-23T08:48:50.307Z,22.62
2018-06-23T08:49:50.312Z,22.77
2018-06-23T08:50:50.301Z,22.62
2018-06-23T08:51:50.302Z,22.62
2018-06-23T08:52:50.284Z,22.67
2018-06-23T08:53:50.296Z,22.74
2018-06-23T08:54:50.324Z,22.73
2018-06-23T08:55:50.315Z,22.68
2018-06-23T08:56:50.339Z,22.73
2018-06-23T08:57:50.264Z,22.7
2018-06-23T08:58:50.331Z,22.62
2018-06-23T08:59:50.293Z,22.63
2018-06-23T09:00:50.312Z,22.71
2018-06-23T09:01:50.383Z,22.74
2018-06-23T09:02:50.433Z,22.81
2018-06-23T09:03:50.302Z,22.62
2018-06-23T09:04:50.315Z,22.62
2018-06-23T09:05:50.344Z,22.74
2018-06-23T09:06:50.399Z,22.65
2018-06-23T09:07:50.804Z,22.71
2018-06-23T09:08:50.346Z,22.71
2018-06-23T09:09:50.674Z,22.65
2018-06-23T09:10:50.484Z,22.68
2018-06-23T09:11:50.336Z,22.65
2018-06-23T09:12:50.290Z,22.68
2018-06-23T09:13:50.298Z,22.7
2018-06-23T09:14:50.325Z,22.55
2018-06-23T09:15:50.328Z,22.38
2018-06-23T09:16:51.068Z,22.28
2018-06-23T09:17:50.265Z,22.46
2018-06-23T09:18:50.377Z,22.36
2018-06-23T09:19:50.356Z,22.34
2018-06-23T09:25:06.937Z,22.37
2018-06-23T09:25:18.568Z,22.55
2018-06-23T09:26:18.483Z,22.47
2018-06-23T09:27:18.489Z,22.4
2018-06-23T09:28:18.858Z,22.41
2018-06-23T09:29:18.498Z,22.52
2018-06-23T09:30:18.555Z,22.53
2018-06-23T09:31:18.564Z,22.58
2018-06-23T09:32:18.550Z,22.56
2018-06-23T09:33:18.559Z,22.65
2018-06-23T09:34:18.481Z,22.53
2018-06-23T09:35:18.540Z,22.47
2018-06-23T09:36:18.516Z,22.58
2018-06-23T09:37:18.525Z,22.61
2018-06-23T09:38:18.496Z,22.59
2018-06-23T09:39:18.594Z,22.61
2018-06-23T09:40:18.554Z,22.68
2018-06-23T09:41:18.561Z,22.61
2018-06-23T09:42:18.543Z,22.59
2018-06-23T09:43:18.573Z,22.63
2018-06-23T09:44:18.526Z,22.61
2018-06-23T09:45:18.589Z,22.68
2018-06-23T09:46:18.662Z,22.53
2018-06-23T09:47:18.493Z,22.63
2018-06-23T09:48:18.525Z,22.56
2018-06-23T09:49:18.841Z,22.63
2018-06-23T09:50:18.588Z,22.62
2018-06-23T09:51:18.721Z,22.73
2018-06-23T09:52:18.530Z,22.62
2018-06-23T09:53:18.558Z,22.53
2018-06-23T09:54:18.612Z,22.58
2018-06-23T09:55:18.517Z,22.62
2018-06-23T09:56:18.583Z,22.47
2018-06-23T09:57:19.074Z,22.59
2018-06-23T09:58:18.671Z,22.68
2018-06-23T09:59:18.731Z,22.63
2018-06-23T10:00:18.636Z,22.58
2018-06-23T10:01:18.671Z,22.55
2018-06-23T10:02:18.542Z,22.67
2018-06-23T10:03:18.735Z,22.65
2018-06-23T10:04:18.654Z,22.58
2018-06-23T10:05:18.528Z,22.56
2018-06-23T10:06:18.537Z,22.56
2018-06-23T10:07:18.591Z,22.52
2018-06-23T10:08:18.578Z,22.67
2018-06-23T10:09:18.552Z,22.56
2018-06-23T10:10:18.586Z,22.58
2018-06-23T10:12:37.543Z,22.3
2018-06-23T10:13:37.455Z,22.47
2018-06-23T10:14:37.465Z,22.53
2018-06-23T10:15:37.544Z,22.46
2018-06-23T10:16:37.576Z,22.53
2018-06-23T10:21:54.298Z,22.55
2018-06-23T10:22:05.788Z,22.56
2018-06-23T10:23:05.720Z,22.58
2018-06-23T10:24:05.727Z,22.58
2018-06-23T10:25:05.740Z,22.62
2018-06-23T10:26:05.780Z,22.65
2018-06-23T10:27:05.748Z,22.47
2018-06-23T10:28:05.752Z,22.68
2018-06-23T10:29:05.889Z,22.62
2018-06-23T10:30:05.767Z,22.61
2018-06-23T10:31:05.826Z,22.61
2018-06-23T10:32:05.786Z,22.67
2018-06-23T10:33:05.763Z,22.56
2018-06-23T10:34:05.736Z,22.62
2018-06-23T10:35:05.808Z,22.52
2018-06-23T10:36:05.764Z,22.65
2018-06-23T10:37:05.768Z,22.71
2018-06-23T10:38:05.899Z,22.62
2018-06-23T10:39:05.773Z,22.55
2018-06-23T10:40:05.866Z,22.65
2018-06-23T10:41:05.814Z,22.62
2018-06-23T10:42:05.847Z,22.62
2018-06-23T10:43:05.779Z,22.65
2018-06-23T10:44:05.832Z,22.53
2018-06-23T10:45:05.819Z,22.61
2018-06-23T10:46:05.823Z,22.62
2018-06-23T10:47:05.805Z,22.73
2018-06-23T10:48:05.777Z,22.74
2018-06-23T10:49:05.861Z,22.7
2018-06-23T10:50:05.799Z,22.56
2018-06-23T10:51:05.875Z,22.67
2018-06-23T10:52:05.814Z,22.71
2018-06-23T10:53:05.911Z,22.63
2018-06-23T10:54:05.816Z,22.65
2018-06-23T10:55:05.832Z,22.59
2018-06-23T10:56:05.816Z,22.7
2018-06-23T10:57:05.820Z,22.63
2018-06-23T10:58:09.699Z,22.61
2018-06-23T10:59:06.545Z,22.62
2018-06-23T11:00:05.843Z,22.65
2018-06-23T11:01:05.856Z,22.73
2018-06-23T11:02:05.794Z,22.65
2018-06-23T11:03:05.811Z,22.65
2018-06-23T11:04:05.864Z,22.59
2018-06-23T11:05:05.870Z,22.65
2018-06-23T11:06:05.881Z,22.71
2018-06-23T11:07:05.863Z,22.67
2018-06-23T11:08:05.834Z,22.68
2018-06-23T11:09:05.847Z,22.61
2018-06-23T11:10:05.847Z,22.68
2018-06-23T11:11:05.835Z,22.62
2018-06-23T11:12:05.823Z,22.62
2018-06-23T11:13:05.908Z,22.61
2018-06-23T11:14:05.828Z,22.61
2018-06-23T11:15:05.931Z,22.58
2018-06-23T11:16:05.812Z,22.56
2018-06-23T11:17:05.877Z,22.61
2018-06-23T11:18:05.849Z,22.68
2018-06-23T11:19:05.879Z,22.62
2018-06-23T11:20:05.840Z,22.61
2018-06-23T11:21:05.814Z,22.76
2018-06-23T11:22:05.851Z,22.76
2018-06-23T11:23:05.894Z,22.77
2018-06-23T11:24:05.886Z,22.84
2018-06-23T11:25:05.906Z,22.77
2018-06-23T11:26:05.858Z,22.8
2018-06-23T11:30:34.198Z,22.78
2018-06-23T11:31:34.065Z,22.78
2018-06-23T11:32:34.082Z,22.8
2018-06-23T11:33:34.146Z,22.78
2018-06-23T11:34:34.097Z,22.71
2018-06-23T11:35:34.096Z,22.74
2018-06-23T11:36:34.072Z,22.71
2018-06-23T11:37:34.057Z,22.74
2018-06-23T11:38:34.120Z,22.77
2018-06-23T11:39:34.074Z,22.77
2018-06-23T11:40:34.103Z,22.73
2018-06-23T11:41:34.156Z,22.76
2018-06-23T11:42:34.170Z,22.76
2018-06-23T11:43:34.125Z,22.78
2018-06-23T11:44:34.101Z,22.8
2018-06-23T11:45:34.077Z,22.81
2018-06-23T11:46:34.203Z,22.73
2018-06-23T11:47:34.119Z,22.63
2018-06-23T11:48:34.234Z,22.52
2018-06-23T11:49:34.108Z,22.65
2018-06-23T11:50:34.116Z,22.7
2018-06-23T11:51:34.147Z,22.7
2018-06-23T11:52:34.259Z,22.65
2018-06-23T11:53:34.154Z,22.71
2018-06-23T11:54:34.156Z,22.71
2018-06-23T11:55:34.119Z,22.68
2018-06-23T11:56:34.232Z,22.71
2018-06-23T11:57:34.216Z,22.63
2018-06-23T11:58:34.166Z,22.71
2018-06-23T11:59:34.161Z,22.67
2018-06-23T12:00:34.110Z,22.74
2018-06-23T12:01:34.143Z,22.7
2018-06-23T12:02:34.125Z,22.71
2018-06-23T12:03:34.191Z,22.73
2018-06-23T12:04:34.126Z,22.61
2018-06-23T12:05:34.160Z,22.68
2018-06-23T12:06:34.142Z,22.61
2018-06-23T12:07:34.147Z,22.7
2018-06-23T12:08:34.234Z,22.58
2018-06-23T12:09:34.147Z,22.53
2018-06-23T12:10:34.169Z,22.68
2018-06-23T12:11:34.095Z,22.68
2018-06-23T12:12:34.156Z,22.63
2018-06-23T12:13:34.137Z,22.71
2018-06-23T12:14:34.188Z,22.62
2018-06-23T12:15:34.106Z,22.73
2018-06-23T12:16:34.163Z,22.8
2018-06-23T12:17:34.171Z,22.71
2018-06-23T12:18:34.193Z,22.8
2018-06-23T12:19:34.153Z,22.81
2018-06-23T12:20:34.192Z,22.92
2018-06-23T12:21:34.147Z,22.88
2018-06-23T12:22:34.175Z,22.92
2018-06-23T12:23:34.215Z,22.89
2018-06-23T12:24:34.137Z,22.91
2018-06-23T12:25:34.319Z,22.88
2018-06-23T12:26:34.202Z,22.99
2018-06-23T12:27:34.161Z,22.95
2018-06-23T12:28:34.220Z,22.98
2018-06-23T12:29:34.207Z,22.91
2018-06-23T12:30:34.290Z,22.99
2018-06-23T12:31:34.229Z,22.95
2018-06-23T12:32:34.195Z,23.08
2018-06-23T12:33:34.245Z,23.02
2018-06-23T12:34:34.282Z,23.04
2018-06-23T12:35:34.338Z,23.02
2018-06-23T12:36:34.183Z,23.01
2018-06-23T12:37:34.216Z,23.04
2018-06-23T12:38:44.263Z,23.08
2018-06-23T12:39:34.209Z,23.07
2018-06-23T12:40:34.236Z,23.07
2018-06-23T12:41:34.322Z,23.07
2018-06-23T12:42:34.229Z,22.98
2018-06-23T12:47:02.983Z,22.88
2018-06-23T12:48:02.782Z,22.93
2018-06-23T12:49:02.703Z,22.89
2018-06-23T12:50:02.787Z,22.89
2018-06-23T12:51:02.722Z,22.96
2018-06-23T12:52:02.722Z,22.78
2018-06-23T12:53:03.455Z,22.92
2018-06-23T12:54:02.849Z,22.89
2018-06-23T12:55:03.151Z,22.95
2018-06-23T12:56:02.723Z,22.91
2018-06-23T12:57:02.725Z,22.91
2018-06-23T12:58:02.747Z,22.89
2018-06-23T12:59:02.799Z,22.93
2018-06-23T13:00:02.784Z,22.86
2018-06-23T13:01:03.676Z,22.93
2018-06-23T13:02:02.798Z,22.92
2018-06-23T13:03:02.745Z,22.91
2018-06-23T13:04:02.814Z,22.89
2018-06-23T13:05:02.836Z,22.81
2018-06-23T13:06:02.823Z,22.89
2018-06-23T13:07:02.781Z,22.84
2018-06-23T13:08:02.789Z,22.86
2018-06-23T13:09:02.796Z,22.89
2018-06-23T13:10:02.849Z,22.89
2018-06-23T13:11:02.778Z,22.84
2018-06-23T13:12:02.805Z,22.86
2018-06-23T13:13:02.818Z,22.81
2018-06-23T13:14:02.824Z,22.74
2018-06-23T13:15:02.857Z,22.77
2018-06-23T13:16:02.785Z,22.7
2018-06-23T13:17:02.832Z,22.81
2018-06-23T13:18:02.766Z,22.81
2018-06-23T13:19:02.804Z,22.78
2018-06-23T13:20:02.806Z,22.78
2018-06-23T13:21:02.787Z,22.78
2018-06-23T13:22:02.841Z,22.73
2018-06-23T13:23:02.800Z,22.63
2018-06-23T13:24:02.863Z,22.71
2018-06-23T13:25:02.840Z,22.74